createdAt,value
2022-09-30T00:53:56.716Z,99486.31
2022-09-30T03:42:05.503Z,99929.16
2022-09-30T03:44:42.423Z,99584.84
2022-09-30T04:21:37.643Z,99926.19
2022-09-30T04:49:42.652Z,100016.09
2022-09-30T04:52:10.870Z,99802.75
2022-09-30T04:54:39.802Z,99789.94
2022-09-30T04:57:08.050Z,100005.03
2022-09-30T04:59:37.199Z,99649.88
2022-09-30T05:02:05.801Z,99686.84
2022-09-30T05:04:34.336Z,99536.03
2022-09-30T05:07:09.263Z,99637.56
2022-09-30T05:09:37.684Z,99808.53
2022-09-30T05:12:06.048Z,99748.03
2022-09-30T05:14:34.702Z,99477.22
2022-09-30T05:17:03.675Z,99439.72
2022-09-30T05:19:35.724Z,99511.13
2022-09-30T05:22:04.943Z,100027.28
2022-09-30T05:24:34.801Z,99959.16
2022-09-30T05:27:02.718Z,99980.25
2022-09-30T05:29:30.398Z,99965.78
2022-09-30T05:31:58.336Z,99981.84
2022-09-30T05:34:26.330Z,100026.44
2022-09-30T05:36:54.115Z,100030.63
2022-09-30T05:39:23.274Z,100018.75
2022-09-30T05:44:54.716Z,100027.19
2022-09-30T05:47:23.952Z,100030.53
2022-09-30T05:49:55.878Z,100036.44
2022-09-30T05:52:23.995Z,100038.06
2022-09-30T05:54:53.608Z,100042.19
2022-09-30T05:57:21.638Z,100057.41
2022-09-30T05:59:49.342Z,100053.94
2022-09-30T06:02:17.122Z,100055.44
2022-09-30T06:04:45.105Z,100051.94
2022-09-30T06:07:13.739Z,100026.25
2022-09-30T06:09:41.499Z,100049.47
2022-09-30T06:12:10.925Z,100055.84
2022-09-30T06:14:38.811Z,100067.22
2022-09-30T06:17:06.583Z,100071.66
2022-09-30T06:19:34.427Z,100072.53
2022-09-30T06:22:02.202Z,100068.59
2022-09-30T06:24:30.841Z,100071.75
2022-09-30T06:26:58.800Z,100069.69
2022-09-30T06:29:27.945Z,100072.28
2022-09-30T06:31:55.808Z,100080.59
2022-09-30T06:34:24.009Z,100080.00
2022-09-30T06:36:51.756Z,100083.72
2022-09-30T06:39:19.853Z,100094.56
2022-09-30T06:41:47.951Z,100081.06
2022-09-30T06:44:26.110Z,100091.94
2022-09-30T06:46:55.951Z,100088.66
2022-09-30T06:49:23.970Z,100076.59
2022-09-30T06:51:52.135Z,100082.44
2022-09-30T06:54:20.956Z,100085.56
2022-09-30T06:56:48.875Z,100080.88
2022-09-30T06:59:17.801Z,100052.16
2022-09-30T07:01:46.344Z,100076.97
2022-09-30T07:04:16.230Z,100016.34
2022-09-30T07:06:43.987Z,100053.78
2022-09-30T07:09:12.778Z,100084.75
2022-09-30T07:11:40.797Z,100077.13
2022-09-30T07:14:10.097Z,100083.09
2022-09-30T07:16:38.390Z,100087.66
2022-09-30T07:19:10.147Z,100086.13
2022-09-30T07:21:39.418Z,100050.69
2022-09-30T07:24:07.274Z,100082.69
2022-09-30T07:26:36.064Z,100063.09
2022-09-30T07:29:03.828Z,100093.94
2022-09-30T07:31:33.709Z,100096.16
2022-09-30T07:34:03.094Z,100095.41
2022-09-30T07:36:33.497Z,100097.38
2022-09-30T07:39:06.791Z,100078.84
2022-09-30T07:41:37.608Z,100065.97
2022-09-30T07:44:15.967Z,100093.50
2022-09-30T07:46:45.469Z,100093.63
2022-09-30T07:49:15.994Z,100069.75
2022-09-30T07:51:45.451Z,100065.84
2022-09-30T07:54:17.045Z,100028.13
2022-09-30T07:59:35.402Z,100102.06
2022-09-30T08:02:03.374Z,100102.81
2022-09-30T08:04:31.259Z,100096.19
2022-09-30T08:07:00.848Z,100104.09
2022-09-30T08:09:31.362Z,100106.94
2022-09-30T08:11:59.724Z,100112.47
2022-09-30T08:14:28.841Z,100048.94
2022-09-30T08:16:58.273Z,100104.28
2022-09-30T08:19:26.944Z,100074.56
2022-09-30T08:21:55.320Z,100081.31
2022-09-30T08:24:23.926Z,100120.56
2022-09-30T08:26:53.755Z,100073.81
2022-09-30T08:29:42.510Z,100121.25
2022-09-30T08:32:09.639Z,100086.22
2022-09-30T08:34:37.423Z,100033.66
2022-09-30T08:37:09.308Z,100129.25
2022-09-30T08:39:37.478Z,100130.47
2022-09-30T08:42:38.376Z,100131.88
2022-09-30T08:45:18.982Z,100073.28
2022-09-30T08:47:54.208Z,100124.47
2022-09-30T08:50:31.607Z,100114.28
2022-09-30T08:53:04.101Z,100097.09
2022-09-30T08:55:40.617Z,100120.03
2022-09-30T08:58:19.408Z,100112.03
2022-09-30T09:00:48.339Z,100108.63
2022-09-30T09:03:20.305Z,100108.16
2022-09-30T09:05:56.576Z,100107.38
2022-09-30T09:08:36.880Z,100103.22
2022-09-30T09:11:12.773Z,100114.75
2022-09-30T09:13:49.487Z,100118.66
2022-09-30T09:16:26.148Z,100086.91
2022-09-30T09:19:00.273Z,100093.16
2022-09-30T09:21:40.381Z,100115.13
2022-09-30T09:24:16.180Z,100087.97
2022-09-30T09:26:44.111Z,100092.50
2022-09-30T09:29:33.538Z,100104.97
2022-09-30T09:32:03.283Z,100108.09
2022-09-30T09:34:33.954Z,100103.94
2022-09-30T09:37:15.560Z,100044.31
2022-09-30T09:40:10.929Z,100095.69
2022-09-30T09:42:59.109Z,100096.31
2022-09-30T09:45:36.880Z,100089.84
2022-09-30T09:48:09.362Z,100092.19
2022-09-30T09:50:45.514Z,100090.34
2022-09-30T09:53:24.396Z,100034.91
2022-09-30T09:55:58.002Z,100094.16
2022-09-30T09:58:26.048Z,100090.03
2022-09-30T10:01:31.861Z,100086.66
2022-09-30T10:04:17.763Z,100079.88
2022-09-30T10:06:49.071Z,100080.22
2022-09-30T10:09:31.567Z,100083.84
2022-09-30T10:12:34.508Z,100081.97
2022-09-30T10:15:22.520Z,100074.56
2022-09-30T10:17:54.827Z,100071.56
2022-09-30T10:20:29.132Z,100073.00
2022-09-30T10:23:04.246Z,100065.94
2022-09-30T10:25:31.995Z,100067.47
2022-09-30T10:28:01.648Z,100021.47
2022-09-30T10:30:42.886Z,100070.72
2022-09-30T10:33:20.935Z,100059.81
2022-09-30T10:35:56.784Z,100058.00
2022-09-30T10:38:29.297Z,100005.91
2022-09-30T10:40:57.870Z,100065.94
2022-09-30T10:43:31.175Z,100068.06
2022-09-30T10:46:24.720Z,100022.91
2022-09-30T10:48:55.281Z,100069.59
2022-09-30T10:51:28.141Z,100047.44
2022-09-30T10:53:57.224Z,100066.34
2022-09-30T10:56:44.095Z,100063.06
2022-09-30T10:59:20.671Z,100061.41
2022-09-30T11:01:54.967Z,100054.31
2022-09-30T11:04:33.205Z,100051.16
2022-09-30T11:07:11.349Z,100052.78
2022-09-30T11:09:45.373Z,100045.44
2022-09-30T11:12:20.748Z,100049.19
2022-09-30T11:14:54.581Z,100046.44
2022-09-30T11:17:29.246Z,100007.81
2022-09-30T11:20:09.280Z,100049.03
2022-09-30T11:22:44.425Z,100008.00
2022-09-30T11:25:15.675Z,100048.22
2022-09-30T11:28:03.679Z,100000.91
2022-09-30T11:30:39.391Z,100043.56
2022-09-30T11:33:39.816Z,100044.66
2022-09-30T11:36:17.522Z,100041.78
2022-09-30T11:38:58.074Z,100033.72
2022-09-30T11:41:31.017Z,100042.38
2022-09-30T11:44:09.300Z,100049.78
2022-09-30T11:47:01.062Z,100047.06
2022-09-30T11:49:42.651Z,100050.75
2022-09-30T11:52:18.988Z,100052.94
2022-09-30T11:55:02.907Z,100050.06
2022-09-30T11:57:38.277Z,100061.88
2022-09-30T12:00:14.351Z,100055.97
2022-09-30T12:02:46.505Z,100062.50
2022-09-30T12:05:21.302Z,100001.47
2022-09-30T12:07:53.667Z,100055.16
2022-09-30T12:10:27.582Z,100051.13
2022-09-30T12:13:00.092Z,100048.41
2022-09-30T12:15:29.933Z,100049.84
2022-09-30T12:18:02.916Z,100045.06
2022-09-30T12:20:34.792Z,100051.31
2022-09-30T12:23:14.838Z,100040.97
2022-09-30T12:25:48.049Z,100045.16
2022-09-30T12:28:44.072Z,100042.72
2022-09-30T12:31:26.442Z,100012.91
2022-09-30T12:34:06.795Z,100036.56
2022-09-30T12:36:56.844Z,100037.03
2022-09-30T12:39:57.705Z,100042.44
2022-09-30T12:42:56.016Z,100042.41
2022-09-30T12:45:40.922Z,100025.53
2022-09-30T12:48:17.163Z,100032.66
2022-09-30T12:50:49.756Z,100032.03
2022-09-30T12:53:22.581Z,100031.56
2022-09-30T12:55:52.438Z,100033.19
2022-09-30T12:58:30.682Z,100035.78
2022-09-30T13:01:02.517Z,100028.31
2022-09-30T13:03:47.109Z,100017.38
2022-09-30T13:06:16.753Z,99987.97
2022-09-30T13:08:50.563Z,99988.53
2022-09-30T13:11:36.144Z,100027.25
2022-09-30T13:14:22.337Z,100025.94
2022-09-30T13:17:02.212Z,100015.97
2022-09-30T13:19:36.473Z,100017.50
2022-09-30T13:22:54.091Z,100020.16
2022-09-30T13:25:22.307Z,99994.53
2022-09-30T13:28:10.707Z,99629.47
2022-09-30T13:30:41.099Z,100021.63
2022-09-30T13:33:42.828Z,100017.00
2022-09-30T13:36:28.619Z,99987.38
2022-09-30T13:39:22.522Z,100019.47
2022-09-30T13:42:02.255Z,100018.72
2022-09-30T13:44:44.093Z,99859.75
2022-09-30T13:47:20.527Z,100009.91
2022-09-30T13:50:00.408Z,100009.47
2022-09-30T13:52:32.451Z,100005.34
2022-09-30T13:55:07.880Z,99979.78
2022-09-30T13:57:45.705Z,100004.50
2022-09-30T14:00:18.977Z,100000.91
2022-09-30T14:03:14.853Z,100009.16
2022-09-30T14:05:53.167Z,100008.97
2022-09-30T14:08:48.362Z,100000.66
2022-09-30T14:11:46.266Z,99995.06
2022-09-30T14:14:43.160Z,99999.59
2022-09-30T14:17:37.481Z,99994.72
2022-09-30T18:54:16.253Z,100010.88
2022-09-30T18:56:44.782Z,100005.94
2022-09-30T18:59:17.147Z,100056.56
2022-09-30T19:01:48.039Z,100062.00
2022-09-30T19:04:16.059Z,100067.41
2022-09-30T19:06:45.283Z,100070.09
2022-09-30T19:09:13.108Z,100062.63
2022-09-30T19:11:43.712Z,100013.31
2022-09-30T19:14:15.582Z,99794.28
2022-09-30T19:16:47.875Z,99942.09
2022-09-30T19:19:23.864Z,100070.28
2022-09-30T19:21:54.656Z,100082.53
2022-09-30T19:24:27.455Z,99783.31
2022-09-30T19:26:56.999Z,100057.31
2022-09-30T19:29:25.955Z,100060.00
2022-09-30T19:31:54.771Z,99463.09
2022-09-30T19:34:32.198Z,100068.13
2022-09-30T19:37:01.632Z,99798.88
2022-09-30T19:39:43.654Z,99797.06
2022-09-30T19:42:17.011Z,99712.69
2022-09-30T19:44:45.636Z,99881.19
2022-09-30T19:47:15.842Z,99575.59
2022-09-30T19:49:44.469Z,99835.28
2022-09-30T19:52:21.851Z,99836.03
2022-09-30T19:54:52.237Z,99891.78
2022-09-30T19:57:24.453Z,99863.78
2022-09-30T19:59:53.682Z,99442.13
2022-09-30T20:02:23.127Z,99631.06
2022-09-30T20:04:53.778Z,100018.09
2022-09-30T20:07:21.639Z,100046.75
2022-09-30T20:09:49.324Z,100048.53
2022-09-30T20:12:17.013Z,99911.56
2022-09-30T20:15:04.716Z,99844.59
2022-09-30T20:17:33.796Z,100053.84
2022-09-30T20:20:20.018Z,99859.59
2022-09-30T20:22:48.795Z,99834.50
2022-09-30T20:25:20.861Z,99656.69
2022-09-30T20:27:52.899Z,100054.31
2022-09-30T20:30:27.384Z,100054.75
2022-09-30T20:32:57.095Z,100060.75
2022-09-30T20:35:26.062Z,99609.63
2022-09-30T20:37:55.646Z,99491.19
2022-09-30T20:40:24.230Z,99966.44
2022-09-30T20:43:53.103Z,99475.38
2022-09-30T20:46:25.127Z,100038.69
2022-09-30T20:48:57.648Z,99676.41
2022-09-30T20:51:51.314Z,100027.22
2022-09-30T20:54:21.063Z,99782.25
2022-09-30T20:57:06.858Z,100072.03
2022-09-30T20:59:36.235Z,99560.56
2022-09-30T21:02:07.121Z,99974.59
2022-09-30T21:04:35.291Z,100007.72
2022-09-30T21:07:03.842Z,99710.88
2022-09-30T21:09:56.906Z,99809.88
2022-09-30T21:12:23.918Z,99793.94
2022-09-30T21:14:52.652Z,99833.34
2022-09-30T21:17:22.987Z,99794.22
2022-09-30T21:19:52.356Z,99489.25
2022-09-30T21:22:24.033Z,99991.63
2022-09-30T21:24:52.996Z,99991.63
2022-09-30T21:27:24.872Z,99490.56
2022-09-30T21:29:55.582Z,99857.38
2022-09-30T21:32:26.625Z,99951.03
2022-09-30T21:44:18.221Z,99957.34
2022-09-30T21:46:50.442Z,99474.91
2022-09-30T21:49:24.814Z,99438.91
2022-09-30T21:51:54.840Z,99943.00
2022-09-30T21:54:24.606Z,99724.06
2022-09-30T21:56:54.677Z,99453.56
2022-09-30T21:59:25.922Z,99813.97
2022-09-30T22:01:54.640Z,99836.44
2022-09-30T22:04:25.068Z,99482.63
2022-09-30T22:06:54.122Z,99419.06
2022-09-30T22:09:22.952Z,99643.53
2022-09-30T22:11:52.178Z,99666.72
2022-09-30T22:14:21.020Z,99358.91
2022-09-30T22:16:49.781Z,99907.75
2022-09-30T22:19:21.338Z,99932.59
2022-09-30T22:21:51.718Z,99675.03
2022-09-30T22:24:25.027Z,99784.69
2022-09-30T22:26:53.638Z,99577.72
2022-09-30T22:29:22.285Z,99955.63
2022-09-30T22:31:52.050Z,99394.19
2022-09-30T22:34:38.368Z,99951.59
2022-09-30T22:37:27.898Z,99970.97
2022-09-30T22:40:01.054Z,99973.38
2022-09-30T22:42:31.664Z,99945.94
2022-09-30T22:45:01.452Z,99664.28
2022-09-30T22:47:31.881Z,99944.19
2022-09-30T22:50:01.228Z,99520.56
2022-09-30T22:52:32.225Z,99435.31
2022-09-30T22:55:01.555Z,99590.91
2022-09-30T22:57:34.004Z,99933.94
2022-09-30T23:00:03.401Z,99714.09
2022-09-30T23:02:33.979Z,99934.78
2022-09-30T23:05:05.098Z,99931.38
2022-09-30T23:07:35.025Z,99934.78
2022-09-30T23:10:03.791Z,99283.47
2022-09-30T23:12:32.526Z,99391.22
2022-09-30T23:15:03.100Z,99579.59
2022-09-30T23:17:31.883Z,99788.38
2022-09-30T23:20:05.900Z,99946.06
2022-09-30T23:22:36.835Z,99330.00
2022-09-30T23:25:06.268Z,99796.72
2022-09-30T23:27:35.712Z,99912.53
2022-09-30T23:30:05.005Z,99825.06
2022-09-30T23:32:40.811Z,99878.59
2022-09-30T23:35:10.497Z,99908.88
2022-09-30T23:37:41.576Z,99900.09
2022-09-30T23:40:11.658Z,99482.38
2022-09-30T23:42:40.300Z,99240.47
2022-09-30T23:45:10.478Z,99437.91
2022-09-30T23:47:38.996Z,99542.00
2022-09-30T23:50:10.688Z,99297.59
2022-09-30T23:52:41.163Z,99534.81
2022-09-30T23:55:12.683Z,99369.19
2022-09-30T23:57:41.263Z,99322.19
